createdAt,value
2023-02-23T00:00:45.268Z,1007.49
2023-02-23T00:01:45.266Z,1007.51
2023-02-23T00:02:45.361Z,1007.51
2023-02-23T00:03:45.360Z,1007.50
2023-02-23T00:04:45.250Z,1007.52
2023-02-23T00:05:45.243Z,1007.51
2023-02-23T00:06:45.418Z,1007.53
2023-02-23T00:07:45.252Z,1007.49
2023-02-23T00:08:45.235Z,1007.51
2023-02-23T00:09:45.228Z,1007.50
2023-02-23T00:10:45.225Z,1007.52
2023-02-23T00:11:45.226Z,1007.51
2023-02-23T00:12:45.223Z,1007.50
2023-02-23T00:13:45.215Z,1007.51
2023-02-23T00:14:45.230Z,1007.50
2023-02-23T00:15:45.206Z,1007.50
2023-02-23T00:16:45.247Z,1007.51
2023-02-23T00:17:45.198Z,1007.47
2023-02-23T00:18:45.298Z,1007.47
2023-02-23T00:19:45.195Z,1007.48
2023-02-23T00:20:45.188Z,1007.49
2023-02-23T00:21:45.181Z,1007.47
2023-02-23T00:22:45.180Z,1007.47
2023-02-23T00:23:45.179Z,1007.46
2023-02-23T00:24:45.172Z,1007.47
2023-02-23T00:25:45.168Z,1007.45
2023-02-23T00:26:45.165Z,1007.45
2023-02-23T00:27:45.160Z,1007.47
2023-02-23T00:28:45.165Z,1007.46
2023-02-23T00:29:45.156Z,1007.47
2023-02-23T00:30:45.217Z,1007.45
2023-02-23T00:31:45.264Z,1007.41
2023-02-23T00:32:45.205Z,1007.46
2023-02-23T00:33:45.145Z,1007.45
2023-02-23T00:34:45.144Z,1007.45
2023-02-23T00:35:45.136Z,1007.48
2023-02-23T00:36:45.136Z,1007.46
2023-02-23T00:37:45.132Z,1007.46
2023-02-23T00:38:45.130Z,1007.41
2023-02-23T00:39:45.125Z,1007.44
2023-02-23T00:40:45.123Z,1007.42
2023-02-23T00:41:45.112Z,1007.46
2023-02-23T00:42:45.114Z,1007.39
2023-02-23T00:43:45.112Z,1007.41
2023-02-23T00:44:45.104Z,1007.40
2023-02-23T00:45:45.124Z,1007.41
2023-02-23T00:46:45.119Z,1007.41
2023-02-23T00:47:45.089Z,1007.45
2023-02-23T00:48:45.094Z,1007.40
2023-02-23T00:49:45.156Z,1007.40
2023-02-23T00:50:45.081Z,1007.47
2023-02-23T00:51:45.077Z,1007.37
2023-02-23T00:52:45.186Z,1007.43
2023-02-23T00:53:45.074Z,1007.41
2023-02-23T00:54:45.067Z,1007.41
2023-02-23T00:55:45.073Z,1007.43
2023-02-23T00:56:45.063Z,1007.42
2023-02-23T00:57:45.070Z,1007.40
2023-02-23T00:58:45.051Z,1007.42
2023-02-23T00:59:45.052Z,1007.40
2023-02-23T01:00:45.046Z,1007.41
2023-02-23T01:01:45.206Z,1007.44
2023-02-23T01:02:45.100Z,1007.41
2023-02-23T01:03:45.034Z,1007.44
2023-02-23T01:04:45.027Z,1007.43
2023-02-23T01:05:45.024Z,1007.42
2023-02-23T01:06:45.018Z,1007.43
2023-02-23T01:07:45.024Z,1007.42
2023-02-23T01:08:45.025Z,1007.46
2023-02-23T01:09:45.007Z,1007.46
2023-02-23T01:10:44.998Z,1007.42
2023-02-23T01:11:44.996Z,1007.43
2023-02-23T01:12:44.990Z,1007.44
2023-02-23T01:13:44.992Z,1007.45
2023-02-23T01:14:44.984Z,1007.44
2023-02-23T01:15:44.997Z,1007.44
2023-02-23T01:16:44.980Z,1007.41
2023-02-23T01:17:44.977Z,1007.40
2023-02-23T01:18:45.047Z,1007.40
2023-02-23T01:19:44.974Z,1007.36
2023-02-23T01:20:44.964Z,1007.35
2023-02-23T01:21:44.960Z,1007.38
2023-02-23T01:22:44.953Z,1007.33
2023-02-23T01:23:44.953Z,1007.37
2023-02-23T01:24:44.940Z,1007.37
2023-02-23T01:25:44.942Z,1007.40
2023-02-23T01:26:44.946Z,1007.32
2023-02-23T01:27:44.930Z,1007.40
2023-02-23T01:28:44.925Z,1007.35
2023-02-23T01:29:44.930Z,1007.35
2023-02-23T01:30:44.981Z,1007.40
2023-02-23T01:31:45.088Z,1007.40
2023-02-23T01:32:44.924Z,1007.37
2023-02-23T01:33:44.911Z,1007.42
2023-02-23T01:34:44.919Z,1007.35
2023-02-23T01:35:44.904Z,1007.39
2023-02-23T01:36:44.915Z,1007.37
2023-02-23T01:37:44.895Z,1007.37
2023-02-23T01:38:44.889Z,1007.39
2023-02-23T01:39:44.891Z,1007.40
2023-02-23T01:40:44.887Z,1007.37
2023-02-23T01:41:44.889Z,1007.36
2023-02-23T01:42:44.883Z,1007.39
2023-02-23T01:43:44.870Z,1007.39
2023-02-23T01:44:44.873Z,1007.31
2023-02-23T01:45:44.868Z,1007.36
2023-02-23T01:46:44.860Z,1007.35
2023-02-23T01:47:44.898Z,1007.33
2023-02-23T01:48:44.850Z,1007.35
2023-02-23T01:49:44.848Z,1007.35
2023-02-23T01:50:44.862Z,1007.36
2023-02-23T01:51:44.847Z,1007.35
2023-02-23T01:52:44.835Z,1007.31
2023-02-23T01:53:44.838Z,1007.34
2023-02-23T01:54:44.826Z,1007.30
2023-02-23T01:55:44.824Z,1007.30
2023-02-23T01:56:44.827Z,1007.28
2023-02-23T01:57:44.818Z,1007.29
2023-02-23T01:58:44.812Z,1007.27
2023-02-23T01:59:44.821Z,1007.25
2023-02-23T02:00:47.422Z,1007.28
2023-02-23T02:01:44.879Z,1007.27
2023-02-23T02:02:44.797Z,1007.29
2023-02-23T02:03:44.797Z,1007.29
2023-02-23T02:04:45.105Z,1007.25
2023-02-23T02:05:44.785Z,1007.27
2023-02-23T02:06:44.933Z,1007.26
2023-02-23T02:07:44.778Z,1007.28
2023-02-23T02:08:44.773Z,1007.28
2023-02-23T02:09:44.772Z,1007.25
2023-02-23T02:10:44.771Z,1007.27
2023-02-23T02:11:44.769Z,1007.26
2023-02-23T02:12:44.758Z,1007.31
2023-02-23T02:13:44.756Z,1007.27
2023-02-23T02:14:44.751Z,1007.30
2023-02-23T02:15:44.749Z,1007.27
2023-02-23T02:16:44.746Z,1007.31
2023-02-23T02:17:44.743Z,1007.31
2023-02-23T02:18:44.736Z,1007.30
2023-02-23T02:19:44.733Z,1007.34
2023-02-23T02:20:44.726Z,1007.33
2023-02-23T02:21:44.728Z,1007.32
2023-02-23T02:22:44.740Z,1007.31
2023-02-23T02:23:44.721Z,1007.36
2023-02-23T02:24:44.774Z,1007.31
2023-02-23T02:25:44.714Z,1007.31
2023-02-23T02:26:44.707Z,1007.33
2023-02-23T02:27:44.703Z,1007.33
2023-02-23T02:28:44.702Z,1007.30
2023-02-23T02:29:44.697Z,1007.29
2023-02-23T02:30:44.765Z,1007.33
2023-02-23T02:31:44.768Z,1007.34
2023-02-23T02:32:44.682Z,1007.33
2023-02-23T02:33:44.679Z,1007.28
2023-02-23T02:34:44.675Z,1007.31
2023-02-23T02:35:44.672Z,1007.32
2023-02-23T02:36:44.666Z,1007.33
2023-02-23T02:37:44.664Z,1007.33
2023-02-23T02:38:44.711Z,1007.30
2023-02-23T02:39:44.658Z,1007.31
2023-02-23T02:40:44.651Z,1007.30
2023-02-23T02:41:44.659Z,1007.31
2023-02-23T02:42:44.643Z,1007.28
2023-02-23T02:43:44.648Z,1007.25
2023-02-23T02:44:44.633Z,1007.26
2023-02-23T02:45:44.644Z,1007.27
2023-02-23T02:46:44.630Z,1007.28
2023-02-23T02:47:44.627Z,1007.29
2023-02-23T02:48:44.620Z,1007.24
2023-02-23T02:49:44.624Z,1007.26
2023-02-23T02:50:44.616Z,1007.26
2023-02-23T02:51:44.616Z,1007.23
2023-02-23T02:52:44.610Z,1007.24
2023-02-23T02:53:44.608Z,1007.22
2023-02-23T02:54:44.648Z,1007.19
2023-02-23T02:55:44.597Z,1007.20
2023-02-23T02:56:44.596Z,1007.18
2023-02-23T02:57:44.594Z,1007.18
2023-02-23T02:58:44.587Z,1007.19
2023-02-23T02:59:44.584Z,1007.19
2023-02-23T03:00:44.580Z,1007.18
2023-02-23T03:01:44.639Z,1007.14
2023-02-23T03:02:44.571Z,1007.18
2023-02-23T03:03:44.570Z,1007.15
2023-02-23T03:04:44.691Z,1007.14
2023-02-23T03:05:44.562Z,1007.17
2023-02-23T03:06:44.563Z,1007.19
2023-02-23T03:07:44.555Z,1007.12
2023-02-23T03:08:44.554Z,1007.18
2023-02-23T03:09:44.626Z,1007.16
2023-02-23T03:10:44.557Z,1007.17
2023-02-23T03:11:44.540Z,1007.14
2023-02-23T03:12:44.531Z,1007.18
2023-02-23T03:13:44.534Z,1007.14
2023-02-23T03:14:44.526Z,1007.19
2023-02-23T03:15:44.549Z,1007.16
2023-02-23T03:16:44.520Z,1007.19
2023-02-23T03:17:44.517Z,1007.15
2023-02-23T03:18:44.516Z,1007.17
2023-02-23T03:19:44.508Z,1007.18
2023-02-23T03:20:44.509Z,1007.19
2023-02-23T03:21:44.505Z,1007.20
2023-02-23T03:22:44.497Z,1007.20
2023-02-23T03:23:44.491Z,1007.22
2023-02-23T03:24:44.502Z,1007.21
2023-02-23T03:25:44.486Z,1007.23
2023-02-23T03:26:44.541Z,1007.19
2023-02-23T03:27:44.476Z,1007.23
2023-02-23T03:28:44.474Z,1007.19
2023-02-23T03:29:44.471Z,1007.22
2023-02-23T03:30:44.514Z,1007.20
2023-02-23T03:31:44.602Z,1007.22
2023-02-23T03:32:44.460Z,1007.26
2023-02-23T03:33:44.466Z,1007.26
2023-02-23T03:34:44.460Z,1007.23
2023-02-23T03:35:44.458Z,1007.23
2023-02-23T03:36:44.641Z,1007.23
2023-02-23T03:37:44.443Z,1007.24
2023-02-23T03:38:44.437Z,1007.25
2023-02-23T03:39:44.434Z,1007.24
2023-02-23T03:40:44.437Z,1007.24
2023-02-23T03:41:44.425Z,1007.24
2023-02-23T03:42:44.437Z,1007.26
2023-02-23T03:43:44.419Z,1007.26
2023-02-23T03:44:44.422Z,1007.25
2023-02-23T03:45:44.473Z,1007.24
2023-02-23T03:46:44.416Z,1007.24
2023-02-23T03:47:44.402Z,1007.28
2023-02-23T03:48:44.407Z,1007.29
2023-02-23T03:49:44.392Z,1007.27
2023-02-23T03:50:44.389Z,1007.24
2023-02-23T03:51:44.384Z,1007.27
2023-02-23T03:52:44.378Z,1007.30
2023-02-23T03:53:44.375Z,1007.27
2023-02-23T03:54:44.371Z,1007.28
2023-02-23T03:55:44.366Z,1007.29
2023-02-23T03:56:44.377Z,1007.26
2023-02-23T03:57:44.361Z,1007.32
2023-02-23T03:58:44.386Z,1007.31
2023-02-23T03:59:44.355Z,1007.29
2023-02-23T04:00:44.358Z,1007.32
2023-02-23T04:01:44.386Z,1007.33
2023-02-23T04:02:44.338Z,1007.30
2023-02-23T04:03:44.371Z,1007.34
2023-02-23T04:04:44.332Z,1007.31
2023-02-23T04:05:44.326Z,1007.33
2023-02-23T04:06:44.327Z,1007.31
2023-02-23T04:07:44.321Z,1007.32
2023-02-23T04:08:44.333Z,1007.31
2023-02-23T04:09:44.313Z,1007.34
2023-02-23T04:10:44.303Z,1007.34
2023-02-23T04:11:44.304Z,1007.34
2023-02-23T04:12:44.297Z,1007.36
2023-02-23T04:13:44.296Z,1007.38
2023-02-23T04:14:44.306Z,1007.38
2023-02-23T04:15:44.286Z,1007.41
2023-02-23T04:16:44.337Z,1007.37
2023-02-23T04:17:44.282Z,1007.40
2023-02-23T04:18:44.283Z,1007.40
2023-02-23T04:19:44.291Z,1007.40
2023-02-23T04:20:44.308Z,1007.44
2023-02-23T04:21:44.272Z,1007.44
2023-02-23T04:22:44.267Z,1007.43
2023-02-23T04:23:44.266Z,1007.44
2023-02-23T04:24:44.251Z,1007.46
2023-02-23T04:25:44.253Z,1007.44
2023-02-23T04:26:44.244Z,1007.45
2023-02-23T04:27:44.247Z,1007.45
2023-02-23T04:28:44.233Z,1007.46
2023-02-23T04:29:44.231Z,1007.48
2023-02-23T04:30:44.289Z,1007.45
2023-02-23T04:31:44.380Z,1007.47
2023-02-23T04:32:44.369Z,1007.47
2023-02-23T04:33:44.217Z,1007.47
2023-02-23T04:34:44.214Z,1007.45
2023-02-23T04:35:44.209Z,1007.46
2023-02-23T04:36:44.457Z,1007.49
2023-02-23T04:37:44.204Z,1007.46
2023-02-23T04:38:44.198Z,1007.46
2023-02-23T04:39:44.196Z,1007.46
2023-02-23T04:40:44.189Z,1007.49
2023-02-23T04:41:44.186Z,1007.48
2023-02-23T04:42:44.182Z,1007.50
2023-02-23T04:43:44.178Z,1007.48
2023-02-23T04:44:44.175Z,1007.48
2023-02-23T04:45:44.260Z,1007.50
2023-02-23T04:46:44.185Z,1007.48
2023-02-23T04:47:44.181Z,1007.50
2023-02-23T04:48:44.158Z,1007.47
2023-02-23T04:49:44.154Z,1007.51
2023-02-23T04:50:44.148Z,1007.46
2023-02-23T04:51:44.149Z,1007.49
2023-02-23T04:52:44.146Z,1007.48
2023-02-23T04:53:44.142Z,1007.51
2023-02-23T04:54:44.137Z,1007.46
2023-02-23T04:55:45.526Z,1007.49
2023-02-23T04:56:44.128Z,1007.48
2023-02-23T04:57:44.124Z,1007.49
2023-02-23T04:58:44.126Z,1007.47
2023-02-23T04:59:44.125Z,1007.50
2023-02-23T05:00:44.112Z,1007.50
2023-02-23T05:01:44.139Z,1007.53
2023-02-23T05:02:44.124Z,1007.50
2023-02-23T05:03:44.100Z,1007.50
2023-02-23T05:04:44.116Z,1007.51
2023-02-23T05:05:44.094Z,1007.52
2023-02-23T05:06:44.091Z,1007.53
2023-02-23T05:07:44.095Z,1007.53
2023-02-23T05:08:44.082Z,1007.51
2023-02-23T05:09:44.083Z,1007.54
2023-02-23T05:10:44.082Z,1007.52
2023-02-23T05:11:44.071Z,1007.55
2023-02-23T05:12:44.093Z,1007.55
2023-02-23T05:13:44.061Z,1007.54
2023-02-23T05:14:44.056Z,1007.52
2023-02-23T05:15:44.065Z,1007.60
2023-02-23T05:16:44.053Z,1007.54
2023-02-23T05:17:44.047Z,1007.59
2023-02-23T05:18:44.064Z,1007.58
2023-02-23T05:19:44.045Z,1007.57
2023-02-23T05:20:44.034Z,1007.56
2023-02-23T05:21:44.030Z,1007.57
2023-02-23T05:22:44.035Z,1007.55
2023-02-23T05:23:44.028Z,1007.54
2023-02-23T05:24:44.025Z,1007.58
2023-02-23T05:25:44.019Z,1007.57
2023-02-23T05:26:44.016Z,1007.56
2023-02-23T05:27:44.006Z,1007.56
2023-02-23T05:28:44.004Z,1007.53
2023-02-23T05:29:43.999Z,1007.59
2023-02-23T05:30:44.084Z,1007.61
2023-02-23T05:31:44.102Z,1007.59
2023-02-23T05:32:43.993Z,1007.57
2023-02-23T05:33:43.991Z,1007.59
2023-02-23T05:34:44.004Z,1007.62
2023-02-23T05:35:43.974Z,1007.61
2023-02-23T05:36:43.972Z,1007.60
2023-02-23T05:37:43.971Z,1007.60
2023-02-23T05:38:43.966Z,1007.59
2023-02-23T05:39:43.986Z,1007.60
2023-02-23T05:40:43.958Z,1007.58
2023-02-23T05:41:43.947Z,1007.63
2023-02-23T05:42:43.944Z,1007.61
2023-02-23T05:43:43.942Z,1007.63
2023-02-23T05:44:43.938Z,1007.63
2023-02-23T05:45:43.929Z,1007.59
2023-02-23T05:46:43.930Z,1007.64
2023-02-23T05:47:43.929Z,1007.64
2023-02-23T05:48:43.923Z,1007.65
2023-02-23T05:49:43.914Z,1007.62
2023-02-23T05:50:44.029Z,1007.64
2023-02-23T05:51:43.905Z,1007.67
2023-02-23T05:52:43.905Z,1007.64
2023-02-23T05:53:43.909Z,1007.65
2023-02-23T05:54:43.894Z,1007.71
2023-02-23T05:55:43.907Z,1007.70
2023-02-23T05:56:43.888Z,1007.72
2023-02-23T05:57:43.904Z,1007.71
2023-02-23T05:58:43.880Z,1007.67
2023-02-23T05:59:43.875Z,1007.69
2023-02-23T06:00:43.877Z,1007.73
2023-02-23T06:01:43.871Z,1007.71
2023-02-23T06:02:43.898Z,1007.76
2023-02-23T06:03:43.883Z,1007.73
2023-02-23T06:04:43.859Z,1007.71
2023-02-23T06:05:43.861Z,1007.71
2023-02-23T06:06:43.880Z,1007.73
2023-02-23T06:07:43.849Z,1007.70
2023-02-23T06:08:43.845Z,1007.71
2023-02-23T06:09:44.672Z,1007.69
2023-02-23T06:10:43.836Z,1007.70
2023-02-23T06:11:43.833Z,1007.70
2023-02-23T06:12:43.830Z,1007.74
2023-02-23T06:13:43.824Z,1007.73
2023-02-23T06:14:43.820Z,1007.76
2023-02-23T06:15:43.933Z,1007.75
2023-02-23T06:16:43.876Z,1007.75
2023-02-23T06:17:43.810Z,1007.80
2023-02-23T06:18:43.804Z,1007.82
2023-02-23T06:19:43.796Z,1007.83
2023-02-23T06:20:43.795Z,1007.84
2023-02-23T06:21:43.789Z,1007.83
2023-02-23T06:22:43.812Z,1007.86
2023-02-23T06:23:43.785Z,1007.86
2023-02-23T06:24:43.781Z,1007.91
2023-02-23T06:25:43.780Z,1007.88
2023-02-23T06:26:44.572Z,1007.89
2023-02-23T06:27:43.766Z,1007.90
2023-02-23T06:28:43.771Z,1007.89
2023-02-23T06:29:43.761Z,1007.89
2023-02-23T06:30:43.782Z,1007.94
2023-02-23T06:31:43.829Z,1007.91
2023-02-23T06:32:43.745Z,1007.91
2023-02-23T06:33:43.744Z,1007.97
2023-02-23T06:34:43.754Z,1007.96
2023-02-23T06:35:43.735Z,1007.95
2023-02-23T06:36:43.735Z,1007.93
2023-02-23T06:37:43.730Z,1007.96
2023-02-23T06:38:43.748Z,1007.97
2023-02-23T06:39:43.716Z,1007.97
2023-02-23T06:40:43.729Z,1008.00
2023-02-23T06:41:43.708Z,1008.00
2023-02-23T06:42:43.709Z,1008.03
2023-02-23T06:43:43.704Z,1008.02
2023-02-23T06:44:43.699Z,1008.02
2023-02-23T06:45:43.695Z,1008.04
2023-02-23T06:46:43.750Z,1008.06
2023-02-23T06:47:43.699Z,1008.08
2023-02-23T06:48:43.696Z,1008.08
2023-02-23T06:49:43.679Z,1008.09
2023-02-23T06:50:43.673Z,1008.09
2023-02-23T06:51:43.668Z,1008.08
2023-02-23T06:52:43.667Z,1008.08
2023-02-23T06:53:43.659Z,1008.12
2023-02-23T06:54:43.681Z,1008.12
2023-02-23T06:55:43.653Z,1008.14
2023-02-23T06:56:43.652Z,1008.15
2023-02-23T06:57:43.646Z,1008.13
2023-02-23T06:58:43.641Z,1008.14
2023-02-23T06:59:43.641Z,1008.17
2023-02-23T07:00:43.647Z,1008.18
2023-02-23T07:01:43.674Z,1008.18
2023-02-23T07:02:43.624Z,1008.22
2023-02-23T07:03:43.637Z,1008.24
2023-02-23T07:04:43.616Z,1008.22
2023-02-23T07:05:43.792Z,1008.23
2023-02-23T07:06:43.611Z,1008.28
2023-02-23T07:07:43.611Z,1008.30
2023-02-23T07:08:43.604Z,1008.30
2023-02-23T07:09:43.594Z,1008.29
2023-02-23T07:10:43.613Z,1008.32
2023-02-23T07:11:43.597Z,1008.32
2023-02-23T07:12:43.585Z,1008.33
2023-02-23T07:13:43.578Z,1008.32
2023-02-23T07:14:43.575Z,1008.36
2023-02-23T07:15:43.570Z,1008.40
2023-02-23T07:16:43.564Z,1008.40
2023-02-23T07:17:43.559Z,1008.35
2023-02-23T07:18:43.559Z,1008.38
2023-02-23T07:19:43.549Z,1008.42
2023-02-23T07:20:43.551Z,1008.42
2023-02-23T07:21:43.546Z,1008.42
2023-02-23T07:22:43.539Z,1008.42
2023-02-23T07:23:43.533Z,1008.43
2023-02-23T07:24:43.540Z,1008.44
2023-02-23T07:25:43.531Z,1008.43
2023-02-23T07:26:43.681Z,1008.43
2023-02-23T07:27:43.518Z,1008.43
2023-02-23T07:28:43.516Z,1008.43
2023-02-23T07:29:43.527Z,1008.47
2023-02-23T07:30:43.528Z,1008.48
2023-02-23T07:31:43.637Z,1008.49
2023-02-23T07:32:43.550Z,1008.48
2023-02-23T07:33:43.497Z,1008.50
2023-02-23T07:34:43.489Z,1008.51
2023-02-23T07:35:43.489Z,1008.52
2023-02-23T07:36:43.481Z,1008.49
2023-02-23T07:37:43.481Z,1008.56
2023-02-23T07:38:43.477Z,1008.55
2023-02-23T07:39:43.472Z,1008.54
2023-02-23T07:40:43.474Z,1008.59
2023-02-23T07:41:43.817Z,1008.55
2023-02-23T07:42:43.488Z,1008.57
2023-02-23T07:43:43.467Z,1008.61
2023-02-23T07:44:43.456Z,1008.57
2023-02-23T07:45:45.596Z,1008.56
2023-02-23T07:46:43.453Z,1008.60
2023-02-23T07:47:43.443Z,1008.58
2023-02-23T07:48:43.439Z,1008.59
2023-02-23T07:49:43.433Z,1008.61
2023-02-23T07:50:43.440Z,1008.61
2023-02-23T07:51:43.430Z,1008.61
2023-02-23T07:52:43.426Z,1008.64
2023-02-23T07:53:43.422Z,1008.67
2023-02-23T07:54:43.417Z,1008.63
2023-02-23T07:55:43.423Z,1008.69
2023-02-23T07:56:43.414Z,1008.67
2023-02-23T07:57:43.403Z,1008.70
2023-02-23T07:58:43.480Z,1008.70
2023-02-23T07:59:43.404Z,1008.70
2023-02-23T08:00:43.396Z,1008.71
2023-02-23T08:01:43.389Z,1008.71
2023-02-23T08:02:43.399Z,1008.74
2023-02-23T08:03:43.383Z,1008.72
2023-02-23T08:04:43.380Z,1008.75
2023-02-23T08:05:43.375Z,1008.75
2023-02-23T08:06:43.376Z,1008.72
2023-02-23T08:07:43.366Z,1008.75
2023-02-23T08:08:43.369Z,1008.74
2023-02-23T08:09:43.367Z,1008.78
2023-02-23T08:10:43.355Z,1008.72
2023-02-23T08:11:43.346Z,1008.77
2023-02-23T08:12:43.434Z,1008.74
2023-02-23T08:13:43.355Z,1008.77
2023-02-23T08:14:43.364Z,1008.77
2023-02-23T08:15:43.331Z,1008.81
2023-02-23T08:16:43.396Z,1008.79
2023-02-23T08:17:43.321Z,1008.80
2023-02-23T08:18:43.383Z,1008.82
2023-02-23T08:19:43.315Z,1008.81
2023-02-23T08:20:43.311Z,1008.82
2023-02-23T08:21:43.304Z,1008.86
2023-02-23T08:22:49.805Z,1008.83
2023-02-23T08:23:43.297Z,1008.84
2023-02-23T08:24:43.293Z,1008.87
2023-02-23T08:25:43.288Z,1008.86
2023-02-23T08:26:43.289Z,1008.86
2023-02-23T08:27:43.282Z,1008.87
2023-02-23T08:28:43.281Z,1008.88
2023-02-23T08:29:43.273Z,1008.89
2023-02-23T08:30:43.428Z,1008.89
2023-02-23T08:31:43.403Z,1008.90
2023-02-23T08:32:43.261Z,1008.92
2023-02-23T08:33:43.296Z,1008.92
2023-02-23T08:34:43.261Z,1008.93
2023-02-23T08:35:43.252Z,1008.95
2023-02-23T08:36:45.651Z,1008.98
2023-02-23T08:37:43.240Z,1008.98
2023-02-23T08:38:43.242Z,1008.99
2023-02-23T08:39:43.681Z,1009.02
2023-02-23T08:40:43.268Z,1008.99
2023-02-23T08:41:43.227Z,1008.99
2023-02-23T08:42:43.223Z,1009.01
2023-02-23T08:43:44.136Z,1009.03
2023-02-23T08:44:43.227Z,1009.08
2023-02-23T08:45:43.207Z,1009.07
2023-02-23T08:46:43.256Z,1009.11
2023-02-23T08:47:43.202Z,1009.08
2023-02-23T08:48:43.198Z,1009.06
2023-02-23T08:49:43.194Z,1009.04
2023-02-23T08:50:43.197Z,1009.07
2023-02-23T08:51:43.186Z,1009.10
2023-02-23T08:52:43.176Z,1009.07
2023-02-23T08:53:43.175Z,1009.10
2023-02-23T08:54:43.178Z,1009.08
2023-02-23T08:55:43.166Z,1009.10
2023-02-23T08:56:43.164Z,1009.11
2023-02-23T08:57:43.160Z,1009.10
2023-02-23T08:58:43.156Z,1009.13
2023-02-23T08:59:43.151Z,1009.15
2023-02-23T09:00:43.147Z,1009.11
2023-02-23T09:01:43.258Z,1009.12
2023-02-23T09:02:43.162Z,1009.13
2023-02-23T09:03:43.130Z,1009.13
2023-02-23T09:04:43.156Z,1009.14
2023-02-23T09:05:43.157Z,1009.12
2023-02-23T09:06:43.121Z,1009.14
2023-02-23T09:07:43.113Z,1009.15
2023-02-23T09:08:43.125Z,1009.16
2023-02-23T09:09:43.121Z,1009.18
2023-02-23T09:10:43.110Z,1009.20
2023-02-23T09:11:43.101Z,1009.20
2023-02-23T09:12:43.106Z,1009.24
2023-02-23T09:13:43.101Z,1009.23
2023-02-23T09:14:43.087Z,1009.24
2023-02-23T09:15:43.129Z,1009.22
2023-02-23T09:16:43.077Z,1009.23
2023-02-23T09:17:43.081Z,1009.23
2023-02-23T09:18:43.103Z,1009.21
2023-02-23T09:19:43.065Z,1009.26
2023-02-23T09:20:43.064Z,1009.25
2023-02-23T09:21:43.055Z,1009.27
2023-02-23T09:22:43.057Z,1009.27
2023-02-23T09:23:43.049Z,1009.28
2023-02-23T09:24:43.071Z,1009.32
2023-02-23T09:25:43.041Z,1009.29
2023-02-23T09:26:45.581Z,1009.27
2023-02-23T09:27:43.041Z,1009.29
2023-02-23T09:28:43.031Z,1009.27
2023-02-23T09:29:43.032Z,1009.29
2023-02-23T09:30:43.046Z,1009.29
2023-02-23T09:31:43.209Z,1009.29
2023-02-23T09:32:43.048Z,1009.30
2023-02-23T09:33:43.018Z,1009.29
2023-02-23T09:34:43.030Z,1009.29
2023-02-23T09:35:43.004Z,1009.30
2023-02-23T09:36:43.001Z,1009.26
2023-02-23T09:37:42.995Z,1009.27
2023-02-23T09:38:42.991Z,1009.29
2023-02-23T09:39:43.000Z,1009.29
2023-02-23T09:40:42.980Z,1009.29
2023-02-23T09:41:42.974Z,1009.31
2023-02-23T09:42:42.967Z,1009.34
2023-02-23T09:43:42.969Z,1009.33
2023-02-23T09:44:42.960Z,1009.41
2023-02-23T09:45:42.960Z,1009.41
2023-02-23T09:46:42.974Z,1009.41
2023-02-23T09:47:42.963Z,1009.44
2023-02-23T09:48:42.948Z,1009.42
2023-02-23T09:49:42.941Z,1009.48
2023-02-23T09:50:42.959Z,1009.51
2023-02-23T09:51:42.934Z,1009.46
2023-02-23T09:52:42.933Z,1009.46
2023-02-23T09:53:43.396Z,1009.50
2023-02-23T09:54:42.922Z,1009.49
2023-02-23T09:55:42.918Z,1009.49
2023-02-23T09:56:42.920Z,1009.49
2023-02-23T09:57:42.934Z,1009.52
2023-02-23T09:58:42.909Z,1009.53
2023-02-23T09:59:42.904Z,1009.56
2023-02-23T10:00:42.896Z,1009.54
2023-02-23T10:01:43.027Z,1009.56
2023-02-23T10:02:42.890Z,1009.56
2023-02-23T10:03:42.893Z,1009.56
2023-02-23T10:04:42.916Z,1009.57
2023-02-23T10:05:42.880Z,1009.58
2023-02-23T10:06:42.891Z,1009.60
2023-02-23T10:07:42.874Z,1009.57
2023-02-23T10:08:42.876Z,1009.58
2023-02-23T10:09:42.865Z,1009.58
2023-02-23T10:10:42.869Z,1009.58
2023-02-23T10:11:42.856Z,1009.62
2023-02-23T10:12:42.865Z,1009.59
2023-02-23T10:13:42.847Z,1009.61
2023-02-23T10:14:42.843Z,1009.62
2023-02-23T10:15:42.864Z,1009.61
2023-02-23T10:16:42.833Z,1009.61
2023-02-23T10:17:42.835Z,1009.63
2023-02-23T10:18:47.086Z,1009.67
2023-02-23T10:19:42.829Z,1009.63
2023-02-23T10:20:42.820Z,1009.64
2023-02-23T10:21:42.820Z,1009.64
2023-02-23T10:22:42.886Z,1009.67
2023-02-23T10:23:42.814Z,1009.69
2023-02-23T10:24:42.814Z,1009.64
2023-02-23T10:25:42.801Z,1009.72
2023-02-23T10:26:42.793Z,1009.72
2023-02-23T10:27:42.797Z,1009.74
2023-02-23T10:28:42.787Z,1009.73
2023-02-23T10:29:42.784Z,1009.77
2023-02-23T10:30:42.818Z,1009.79
2023-02-23T10:31:42.936Z,1009.78
2023-02-23T10:32:42.854Z,1009.77
2023-02-23T10:33:42.768Z,1009.83
2023-02-23T10:34:42.765Z,1009.89
2023-02-23T10:35:42.763Z,1009.86
2023-02-23T10:36:42.754Z,1009.85
2023-02-23T10:37:42.751Z,1009.89
2023-02-23T10:38:42.791Z,1009.88
2023-02-23T10:39:42.763Z,1009.88
2023-02-23T10:40:42.736Z,1009.90
2023-02-23T10:41:42.736Z,1009.88
2023-02-23T10:42:42.732Z,1009.91
2023-02-23T10:43:42.727Z,1009.88
2023-02-23T10:44:42.721Z,1009.91
2023-02-23T10:45:42.721Z,1009.92
2023-02-23T10:46:42.847Z,1009.91
2023-02-23T10:47:42.710Z,1009.91
2023-02-23T10:48:42.941Z,1009.92
2023-02-23T10:49:42.714Z,1009.93
2023-02-23T10:50:42.696Z,1009.94
2023-02-23T10:51:42.693Z,1009.93
2023-02-23T10:52:42.705Z,1009.95
2023-02-23T10:53:42.684Z,1009.93
2023-02-23T10:54:42.706Z,1009.92
2023-02-23T10:55:42.676Z,1009.92
2023-02-23T10:56:42.672Z,1009.91
2023-02-23T10:57:42.775Z,1009.87
2023-02-23T10:58:42.666Z,1009.91
2023-02-23T10:59:42.664Z,1009.89
2023-02-23T11:00:42.654Z,1009.90
2023-02-23T11:01:55.457Z,1009.91
2023-02-23T11:02:42.670Z,1009.91
2023-02-23T11:03:43.207Z,1009.87
2023-02-23T11:04:42.681Z,1009.89
2023-02-23T11:05:42.642Z,1009.88
2023-02-23T11:06:42.636Z,1009.90
2023-02-23T11:07:42.626Z,1009.91
2023-02-23T11:08:42.619Z,1009.89
2023-02-23T11:09:47.527Z,1009.90
2023-02-23T11:10:42.637Z,1009.93
2023-02-23T11:11:42.607Z,1009.91
2023-02-23T11:12:42.607Z,1009.94
2023-02-23T11:13:42.604Z,1009.92
2023-02-23T11:14:42.721Z,1009.89
2023-02-23T11:15:50.405Z,1009.88
2023-02-23T11:16:42.660Z,1009.91
2023-02-23T11:17:42.582Z,1009.91
2023-02-23T11:18:42.576Z,1009.92
2023-02-23T11:19:42.577Z,1009.92
2023-02-23T11:20:42.565Z,1009.95
2023-02-23T11:21:42.564Z,1009.96
2023-02-23T11:22:42.555Z,1009.95
2023-02-23T11:23:42.559Z,1009.94
2023-02-23T11:24:42.557Z,1009.95
2023-02-23T11:25:42.546Z,1009.98
2023-02-23T11:26:42.681Z,1009.96
2023-02-23T11:27:42.538Z,1009.96
2023-02-23T11:28:42.541Z,1009.98
2023-02-23T11:29:42.527Z,1010.02
2023-02-23T11:30:42.568Z,1010.02
2023-02-23T11:31:42.627Z,1009.97
2023-02-23T11:32:42.662Z,1009.96
2023-02-23T11:33:42.512Z,1009.97
2023-02-23T11:34:42.512Z,1009.96
2023-02-23T11:35:42.508Z,1009.96
2023-02-23T11:36:42.497Z,1009.94
2023-02-23T11:37:42.495Z,1009.90
2023-02-23T11:38:42.485Z,1009.87
2023-02-23T11:39:42.490Z,1009.90
2023-02-23T11:40:42.478Z,1009.87
2023-02-23T11:41:42.481Z,1009.88
2023-02-23T11:42:42.505Z,1009.84
2023-02-23T11:43:42.475Z,1009.81
2023-02-23T11:44:42.465Z,1009.83
2023-02-23T11:45:43.846Z,1009.76
2023-02-23T11:46:42.509Z,1009.80
2023-02-23T11:47:42.453Z,1009.78
2023-02-23T11:48:42.644Z,1009.78
2023-02-23T11:49:42.459Z,1009.76
2023-02-23T11:50:42.441Z,1009.79
2023-02-23T11:51:42.436Z,1009.82
2023-02-23T11:52:42.429Z,1009.84
2023-02-23T11:53:42.424Z,1009.83
2023-02-23T11:54:42.420Z,1009.81
2023-02-23T11:55:42.422Z,1009.86
2023-02-23T11:56:42.413Z,1009.84
2023-02-23T11:57:42.410Z,1009.82
2023-02-23T11:58:42.473Z,1009.86
2023-02-23T11:59:42.416Z,1009.84
2023-02-23T12:00:42.398Z,1009.81
2023-02-23T12:01:42.403Z,1009.83
2023-02-23T12:02:42.457Z,1009.82
2023-02-23T12:03:42.400Z,1009.79
2023-02-23T12:04:42.410Z,1009.78
2023-02-23T12:05:42.376Z,1009.78